Time;durP1;ratioP1;P1;durP2;ratioP2;P2;SDS_P1;SDS_P2;PMS_P1;PMS_P2;Temp;Humidity;BMP_temperature;BMP_pressure;BME280_temperature;BME280_humidity;BME280_pressure;Samples;Min_cycle;Max_cycle;Signal;HPM_P1;HPM_P2
2023/12/11 00:01:04;;;;;;;11.23;2.93;;;9.50;99.90;;;;;;4895253;29;20240;-72
2023/12/11 00:03:30;;;;;;;9.77;3.40;;;9.50;99.90;;;;;;4879062;29;20435;-73
2023/12/11 00:05:55;;;;;;;13.43;3.10;;;9.50;99.90;;;;;;4894855;29;20451;-74
2023/12/11 00:08:21;;;;;;;8.77;3.20;;;9.60;99.90;;;;;;4888405;29;20225;-73
2023/12/11 00:10:47;;;;;;;7.63;2.80;;;9.70;99.90;;;;;;4893718;29;20211;-72
2023/12/11 00:13:12;;;;;;;16.07;4.03;;;9.80;99.90;;;;;;4892765;29;20246;-71
2023/12/11 00:15:41;;;;;;;9.97;2.80;;;9.90;99.90;;;;;;4891812;29;20572;-73
2023/12/11 00:18:07;;;;;;;13.27;3.80;;;10.00;99.90;;;;;;4897579;29;20432;-73
2023/12/11 00:20:33;;;;;;;12.23;3.67;;;10.00;99.90;;;;;;4901109;29;20414;-73
2023/12/11 00:22:59;;;;;;;10.83;3.23;;;10.00;99.90;;;;;;4894987;29;20196;-72
2023/12/11 00:25:27;;;;;;;15.27;3.87;;;10.10;99.90;;;;;;4894790;29;20456;-72
2023/12/11 00:27:53;;;;;;;12.97;3.53;;;10.20;99.90;;;;;;4883714;29;20712;-73
2023/12/11 00:30:18;;;;;;;13.47;3.40;;;10.20;99.90;;;;;;4880552;29;20471;-73
2023/12/11 00:32:44;;;;;;;12.97;2.90;;;10.30;99.90;;;;;;4883769;29;20267;-72
2023/12/11 00:35:10;;;;;;;11.83;3.20;;;10.20;99.90;;;;;;4880867;29;20223;-73
2023/12/11 00:37:36;;;;;;;12.80;3.40;;;10.20;99.90;;;;;;4881167;29;20287;-73
2023/12/11 00:40:02;;;;;;;14.73;2.90;;;10.10;99.90;;;;;;4880721;29;20186;-72
2023/12/11 00:42:28;;;;;;;15.90;3.50;;;10.00;99.90;;;;;;4888549;29;20208;-72
2023/12/11 00:44:53;;;;;;;14.70;3.20;;;9.80;99.90;;;;;;4899552;29;20443;-72
2023/12/11 00:47:19;;;;;;;18.33;4.30;;;9.70;99.90;;;;;;4898708;29;20498;-72
2023/12/11 00:49:44;;;;;;;10.20;2.23;;;9.60;99.90;;;;;;4880584;29;20219;-72
2023/12/11 00:52:10;;;;;;;8.37;3.20;;;9.50;99.90;;;;;;4880939;29;20195;-73
2023/12/11 00:54:36;;;;;;;12.00;2.80;;;9.40;99.90;;;;;;4880878;29;20474;-74
2023/12/11 00:57:01;;;;;;;12.73;2.70;;;9.40;99.90;;;;;;4889405;29;20199;-72
2023/12/11 00:59:27;;;;;;;10.17;2.67;;;9.40;99.90;;;;;;4891743;29;20283;-72
2023/12/11 01:01:53;;;;;;;12.63;3.10;;;9.40;99.90;;;;;;4898888;29;20526;-71
2023/12/11 01:04:19;;;;;;;10.80;3.20;;;9.40;99.90;;;;;;4880782;29;20290;-73
2023/12/11 01:06:44;;;;;;;13.30;3.03;;;9.40;99.90;;;;;;4879502;29;20942;-73
2023/12/11 01:09:10;;;;;;;17.40;3.63;;;9.50;99.90;;;;;;4886424;29;20230;-72
2023/12/11 01:11:36;;;;;;;14.73;2.80;;;9.50;99.90;;;;;;4890459;29;20204;-72
2023/12/11 01:14:02;;;;;;;12.03;2.87;;;9.50;99.90;;;;;;4889347;29;20497;-72
2023/12/11 01:16:28;;;;;;;15.03;3.73;;;9.40;99.90;;;;;;4886821;29;20219;-73
2023/12/11 01:18:54;;;;;;;7.30;2.37;;;9.30;99.90;;;;;;4887902;29;20514;-71
2023/12/11 01:21:19;;;;;;;11.60;2.70;;;9.30;99.90;;;;;;4882817;29;20223;-72
2023/12/11 01:23:45;;;;;;;17.43;3.60;;;9.30;99.90;;;;;;4886625;29;20449;-73
2023/12/11 01:26:11;;;;;;;10.23;3.17;;;9.30;99.90;;;;;;4882890;29;20211;-73
2023/12/11 01:28:36;;;;;;;22.77;3.70;;;9.30;99.90;;;;;;4883690;29;20232;-72
2023/12/11 01:31:02;;;;;;;12.83;2.80;;;9.30;99.90;;;;;;4892834;29;20311;-71
2023/12/11 01:33:28;;;;;;;12.30;3.10;;;9.30;99.90;;;;;;4889141;29;20326;-72
2023/12/11 01:35:54;;;;;;;13.63;2.67;;;9.30;99.90;;;;;;4882715;29;20493;-72
2023/12/11 01:38:19;;;;;;;14.70;3.30;;;9.40;99.90;;;;;;4895082;29;20187;-72
2023/12/11 01:40:45;;;;;;;18.23;3.47;;;9.50;99.90;;;;;;4899903;29;20285;-73
2023/12/11 01:43:15;;;;;;;12.50;3.43;;;9.60;99.90;;;;;;4890198;29;20203;-72
2023/12/11 01:45:41;;;;;;;15.90;3.43;;;9.70;99.90;;;;;;4890493;29;20216;-72
2023/12/11 01:48:11;;;;;;;10.00;2.87;;;9.80;99.90;;;;;;4891887;29;20420;-71
2023/12/11 01:50:38;;;;;;;16.07;2.90;;;9.90;99.90;;;;;;4897392;29;20546;-71
2023/12/11 01:53:05;;;;;;;20.57;3.60;;;10.00;99.90;;;;;;4900341;29;20707;-72
2023/12/11 01:55:33;;;;;;;10.30;3.10;;;10.00;99.90;;;;;;4893468;29;20440;-72
2023/12/11 01:58:01;;;;;;;15.63;3.50;;;10.00;99.90;;;;;;4900508;29;20483;-72
2023/12/11 02:00:27;;;;;;;12.73;3.57;;;9.90;99.90;;;;;;4882342;29;20428;-72
2023/12/11 02:02:53;;;;;;;17.80;4.60;;;9.80;99.90;;;;;;4882350;29;20516;-73
2023/12/11 02:05:19;;;;;;;11.07;2.30;;;9.90;99.90;;;;;;4891650;29;20228;-73
2023/12/11 02:07:45;;;;;;;12.50;3.17;;;9.90;99.90;;;;;;4882398;29;20416;-71
2023/12/11 02:10:11;;;;;;;13.10;2.60;;;10.00;99.90;;;;;;4881892;29;20255;-71
2023/12/11 02:12:37;;;;;;;15.57;4.30;;;10.10;99.90;;;;;;4881771;29;20881;-71
2023/12/11 02:15:03;;;;;;;19.63;4.50;;;10.10;99.90;;;;;;4882109;29;20241;-72
2023/12/11 02:17:29;;;;;;;10.47;3.47;;;10.20;99.90;;;;;;4884507;29;20432;-71
2023/12/11 02:19:55;;;;;;;9.20;2.60;;;10.30;99.90;;;;;;4883772;29;20473;-72
2023/12/11 02:22:21;;;;;;;11.73;3.13;;;10.30;99.90;;;;;;4898973;29;20274;-72
2023/12/11 02:24:58;;;;;;;13.60;4.20;;;10.30;99.90;;;;;;4881817;29;20279;-72
2023/12/11 02:27:25;;;;;;;16.27;3.63;;;10.30;99.90;;;;;;4889539;29;20433;-72
2023/12/11 02:29:53;;;;;;;17.00;3.53;;;10.30;99.90;;;;;;4900420;29;20471;-72
2023/12/11 02:32:19;;;;;;;7.00;2.30;;;10.40;99.90;;;;;;4898842;29;20471;-71
2023/12/11 02:34:47;;;;;;;14.23;2.87;;;10.40;99.90;;;;;;4881690;29;20432;-72
2023/12/11 02:37:13;;;;;;;23.70;4.57;;;10.30;99.90;;;;;;4895024;29;20508;-72
2023/12/11 02:39:39;;;;;;;19.20;4.03;;;10.30;99.90;;;;;;4899649;29;20723;-72
2023/12/11 02:42:05;;;;;;;15.30;2.67;;;10.30;99.90;;;;;;4881506;29;20428;-71
2023/12/11 02:44:30;;;;;;;8.63;2.60;;;10.30;99.90;;;;;;4881709;29;20655;-72
2023/12/11 02:46:56;;;;;;;11.27;2.80;;;10.30;99.90;;;;;;4886574;29;20193;-71
2023/12/11 02:49:22;;;;;;;11.57;2.60;;;10.40;99.90;;;;;;4892943;29;20573;-71
2023/12/11 02:51:47;;;;;;;11.70;3.20;;;10.30;99.90;;;;;;4880471;29;20200;-72
2023/12/11 02:54:13;;;;;;;14.93;3.20;;;10.30;99.90;;;;;;4881293;29;20209;-71
2023/12/11 02:56:41;;;;;;;12.70;3.10;;;10.20;99.90;;;;;;4891708;29;20242;-72
2023/12/11 02:59:07;;;;;;;6.13;2.30;;;10.10;99.90;;;;;;4885449;29;20200;-72
2023/12/11 03:01:37;;;;;;;15.57;3.20;;;9.90;99.90;;;;;;4900143;29;20511;-73
2023/12/11 03:04:02;;;;;;;17.10;3.27;;;9.90;99.90;;;;;;4885229;29;20243;-71
2023/12/11 03:06:29;;;;;;;14.60;3.40;;;9.90;99.90;;;;;;4893480;29;20528;-72
2023/12/11 03:08:55;;;;;;;15.33;3.40;;;10.00;99.90;;;;;;4887652;29;20215;-72
2023/12/11 03:11:20;;;;;;;13.47;3.30;;;10.10;99.90;;;;;;4889211;29;20423;-72
2023/12/11 03:13:46;;;;;;;13.87;3.00;;;10.20;99.90;;;;;;4899809;29;20253;-72
2023/12/11 03:16:15;;;;;;;12.27;2.77;;;10.30;99.90;;;;;;4898047;29;20371;-73
2023/12/11 03:18:41;;;;;;;9.07;2.10;;;10.30;99.90;;;;;;4881269;29;20205;-72
2023/12/11 03:21:07;;;;;;;8.23;2.20;;;10.30;99.90;;;;;;4883635;29;20468;-72
2023/12/11 03:23:33;;;;;;;13.37;2.80;;;10.30;99.90;;;;;;4894681;29;20229;-72
2023/12/11 03:25:58;;;;;;;18.40;3.50;;;10.30;99.90;;;;;;4886559;29;20230;-72
2023/12/11 03:28:25;;;;;;;14.00;3.60;;;10.30;99.90;;;;;;4881041;29;20207;-72
2023/12/11 03:30:50;;;;;;;7.20;2.93;;;10.30;99.90;;;;;;4899606;29;20314;-73
2023/12/11 03:33:16;;;;;;;13.03;2.70;;;10.20;99.90;;;;;;4880264;29;20498;-73
2023/12/11 03:35:42;;;;;;;7.57;2.93;;;10.20;99.90;;;;;;4880215;29;20216;-72
2023/12/11 03:38:07;;;;;;;10.03;2.60;;;10.20;99.90;;;;;;4883766;29;20201;-71
2023/12/11 03:40:33;;;;;;;14.67;3.40;;;10.20;99.90;;;;;;4880484;29;20544;-71
2023/12/11 03:42:59;;;;;;;5.37;2.20;;;10.20;99.90;;;;;;4889796;29;20210;-72
2023/12/11 03:45:24;;;;;;;13.50;3.30;;;10.20;99.90;;;;;;4887031;29;20297;-72
2023/12/11 03:47:50;;;;;;;6.27;2.20;;;10.20;99.90;;;;;;4884456;29;20192;-72
2023/12/11 03:50:15;;;;;;;7.63;2.63;;;10.10;99.90;;;;;;4880312;29;20235;-73
2023/12/11 03:52:41;;;;;;;7.63;2.60;;;10.00;99.90;;;;;;4882522;29;20190;-72
2023/12/11 03:55:07;;;;;;;19.20;3.00;;;10.00;99.90;;;;;;4899020;29;20220;-72
2023/12/11 03:57:33;;;;;;;12.23;2.70;;;10.00;99.90;;;;;;4887422;29;20348;-71
2023/12/11 03:59:59;;;;;;;29.17;6.63;;;10.00;99.90;;;;;;4887830;29;20200;-71
2023/12/11 04:02:24;;;;;;;10.00;3.00;;;10.00;99.90;;;;;;4896432;29;20450;-73
2023/12/11 04:04:50;;;;;;;10.17;2.57;;;10.00;99.90;;;;;;4880669;29;20227;-72
2023/12/11 04:07:16;;;;;;;19.60;4.03;;;10.10;99.90;;;;;;4898887;29;20523;-73
2023/12/11 04:09:41;;;;;;;15.20;2.70;;;10.20;99.90;;;;;;4899175;29;20287;-72
2023/12/11 04:12:07;;;;;;;12.67;2.90;;;10.30;99.90;;;;;;4895775;29;20263;-71
2023/12/11 04:14:32;;;;;;;8.87;2.60;;;10.30;99.90;;;;;;4896268;29;20515;-72
2023/12/11 04:16:58;;;;;;;8.60;2.60;;;10.40;99.90;;;;;;4893666;29;20211;-71
2023/12/11 04:19:24;;;;;;;14.63;3.07;;;10.40;99.90;;;;;;4889675;29;20239;-71
2023/12/11 04:21:49;;;;;;;14.37;2.63;;;10.40;99.90;;;;;;4898358;29;20603;-72
2023/12/11 04:24:15;;;;;;;13.70;2.80;;;10.40;99.90;;;;;;4898663;29;20544;-71
2023/12/11 04:26:41;;;;;;;11.20;2.23;;;10.30;99.90;;;;;;4894703;29;20266;-72
2023/12/11 04:29:06;;;;;;;12.37;2.87;;;10.20;99.90;;;;;;4882240;29;20206;-71
2023/12/11 04:31:32;;;;;;;11.30;2.30;;;10.10;99.90;;;;;;4898234;29;20231;-72
2023/12/11 04:33:58;;;;;;;9.97;2.33;;;10.00;99.90;;;;;;4885723;29;20209;-73
2023/12/11 04:36:24;;;;;;;13.80;2.97;;;10.00;99.90;;;;;;4895304;29;20291;-72
2023/12/11 04:38:49;;;;;;;9.40;3.10;;;10.00;99.90;;;;;;4898600;29;20197;-72
2023/12/11 04:41:15;;;;;;;10.40;3.57;;;10.10;99.90;;;;;;4886356;29;20185;-72
2023/12/11 04:43:41;;;;;;;18.27;4.37;;;10.20;99.90;;;;;;4879571;29;20669;-72
2023/12/11 04:46:07;;;;;;;7.50;2.90;;;10.30;99.90;;;;;;4880981;29;20287;-73
2023/12/11 04:48:32;;;;;;;10.03;2.47;;;10.40;99.90;;;;;;4883234;29;20235;-72
2023/12/11 04:50:58;;;;;;;9.83;2.53;;;10.40;99.90;;;;;;4902002;29;20377;-73
2023/12/11 04:53:23;;;;;;;7.53;2.50;;;10.50;99.90;;;;;;4884033;29;20194;-72
2023/12/11 04:55:49;;;;;;;11.23;3.53;;;10.50;99.90;;;;;;4883119;29;20369;-72
2023/12/11 04:58:15;;;;;;;15.43;3.37;;;10.50;99.90;;;;;;4891162;29;20535;-72
2023/12/11 05:00:41;;;;;;;13.20;3.27;;;10.50;99.90;;;;;;4886469;29;20596;-72
2023/12/11 05:03:06;;;;;;;16.20;3.80;;;10.50;99.90;;;;;;4888304;29;20432;-73
2023/12/11 05:05:33;;;;;;;7.20;2.43;;;10.50;99.90;;;;;;4893108;29;20231;-73
2023/12/11 05:07:59;;;;;;;9.47;1.90;;;10.50;99.90;;;;;;4894386;29;20202;-71
2023/12/11 05:10:25;;;;;;;12.07;2.90;;;10.50;99.90;;;;;;4897457;29;20467;-72
2023/12/11 05:12:50;;;;;;;12.00;2.90;;;10.60;99.90;;;;;;4904791;29;20186;-72
2023/12/11 05:15:17;;;;;;;9.97;2.50;;;10.50;99.90;;;;;;4892764;29;20218;-72
2023/12/11 05:17:44;;;;;;;8.93;2.70;;;10.60;99.90;;;;;;4873530;29;20210;-72
2023/12/11 05:20:12;;;;;;;8.47;2.73;;;10.60;99.90;;;;;;4903684;29;20436;-72
2023/12/11 05:22:38;;;;;;;14.93;3.47;;;10.60;99.90;;;;;;4895021;29;20446;-73
2023/12/11 05:25:04;;;;;;;13.47;3.20;;;10.70;99.90;;;;;;4892376;29;20445;-74
2023/12/11 05:27:30;;;;;;;6.23;2.37;;;10.70;99.90;;;;;;4895832;29;20570;-73
2023/12/11 05:29:56;;;;;;;8.03;2.53;;;10.70;99.90;;;;;;4895690;29;20514;-72
2023/12/11 05:32:21;;;;;;;12.63;3.80;;;10.60;99.90;;;;;;4893443;29;20220;-72
2023/12/11 05:34:47;;;;;;;9.30;2.80;;;10.50;99.90;;;;;;4903641;29;20216;-73
2023/12/11 05:37:12;;;;;;;14.00;3.13;;;10.30;99.90;;;;;;4900523;29;20231;-74
2023/12/11 05:39:38;;;;;;;8.97;2.50;;;10.20;99.90;;;;;;4892842;29;20512;-72
2023/12/11 05:42:04;;;;;;;16.27;3.20;;;10.00;99.90;;;;;;4894302;29;20197;-73
2023/12/11 05:44:29;;;;;;;10.93;3.10;;;9.90;99.90;;;;;;4894813;29;20488;-75
2023/12/11 05:46:55;;;;;;;10.73;2.20;;;9.80;99.90;;;;;;4902604;29;20689;-73
2023/12/11 05:49:21;;;;;;;8.90;2.50;;;9.70;99.90;;;;;;4897265;29;20220;-75
2023/12/11 05:51:46;;;;;;;6.80;2.30;;;9.60;99.90;;;;;;4899642;29;20218;-72
2023/12/11 05:54:12;;;;;;;19.33;3.20;;;9.60;99.90;;;;;;4893030;29;20261;-74
2023/12/11 05:56:38;;;;;;;12.37;2.70;;;9.60;99.90;;;;;;4901436;29;20219;-74
2023/12/11 05:59:03;;;;;;;15.37;3.17;;;9.60;99.90;;;;;;4899106;29;20214;-73
2023/12/11 06:01:30;;;;;;;8.80;2.03;;;9.60;99.90;;;;;;4893653;29;20241;-73
2023/12/11 06:03:56;;;;;;;17.67;2.67;;;9.60;99.90;;;;;;4877937;29;20416;-74
2023/12/11 06:06:21;;;;;;;6.87;2.20;;;9.70;99.90;;;;;;4897587;29;20615;-73
2023/12/11 06:08:47;;;;;;;16.73;3.73;;;9.70;99.90;;;;;;4895726;29;20191;-74
2023/12/11 06:11:13;;;;;;;8.87;2.70;;;9.70;99.90;;;;;;4876458;29;20224;-74
2023/12/11 06:13:38;;;;;;;6.07;2.43;;;9.60;99.90;;;;;;4894000;29;20180;-74
2023/12/11 06:16:05;;;;;;;11.27;2.50;;;9.50;99.90;;;;;;4879587;29;20214;-73
2023/12/11 06:18:30;;;;;;;12.30;3.07;;;9.50;99.90;;;;;;4866087;29;20194;-72
2023/12/11 06:20:58;;;;;;;13.10;3.13;;;9.40;99.90;;;;;;4884105;29;20835;-74
2023/12/11 06:23:24;;;;;;;11.27;2.70;;;9.40;99.90;;;;;;4899404;29;20197;-73
2023/12/11 06:25:51;;;;;;;9.50;3.20;;;9.30;99.90;;;;;;4883584;29;20923;-73
2023/12/11 06:28:17;;;;;;;9.27;2.67;;;9.30;99.90;;;;;;4906774;29;20415;-74
2023/12/11 06:30:43;;;;;;;20.87;4.20;;;9.20;99.90;;;;;;4881828;29;20527;-76
2023/12/11 06:33:09;;;;;;;14.40;2.70;;;9.20;99.90;;;;;;4900019;29;20468;-76
2023/12/11 06:35:35;;;;;;;16.00;3.57;;;9.20;99.90;;;;;;4899540;29;20474;-75
2023/12/11 06:38:00;;;;;;;13.57;2.73;;;9.20;99.90;;;;;;4901290;29;20414;-75
2023/12/11 06:40:26;;;;;;;11.83;2.30;;;9.20;99.90;;;;;;4891436;29;20472;-76
2023/12/11 06:42:52;;;;;;;12.50;3.07;;;9.20;99.90;;;;;;4893857;29;20206;-73
2023/12/11 06:45:18;;;;;;;8.70;2.90;;;9.20;99.90;;;;;;4896042;29;20224;-74
2023/12/11 06:47:43;;;;;;;7.33;3.00;;;9.10;99.90;;;;;;4897061;29;20207;-73
2023/12/11 06:50:09;;;;;;;10.27;2.10;;;9.10;99.90;;;;;;4901064;29;20538;-77
2023/12/11 06:52:35;;;;;;;9.63;2.20;;;9.20;99.90;;;;;;4902786;29;20175;-78
2023/12/11 06:55:02;;;;;;;6.17;2.07;;;9.20;99.90;;;;;;4885631;29;20595;-74
2023/12/11 06:57:27;;;;;;;10.40;2.30;;;9.30;99.90;;;;;;4881557;29;20208;-75
2023/12/11 06:59:53;;;;;;;16.20;2.73;;;9.20;99.90;;;;;;4900208;29;20416;-73
2023/12/11 07:02:19;;;;;;;7.70;1.70;;;9.20;99.90;;;;;;4895605;29;20191;-73
2023/12/11 07:04:44;;;;;;;11.17;2.63;;;9.20;99.90;;;;;;4903805;29;20230;-74
2023/12/11 07:07:10;;;;;;;10.63;2.77;;;9.20;99.90;;;;;;4890197;29;20274;-74
2023/12/11 07:09:36;;;;;;;10.23;2.43;;;9.20;99.90;;;;;;4901785;29;20203;-73
2023/12/11 07:12:01;;;;;;;17.63;2.77;;;9.10;99.90;;;;;;4901329;29;20230;-74
2023/12/11 07:14:27;;;;;;;11.20;2.90;;;9.10;99.90;;;;;;4897204;29;20184;-75
2023/12/11 07:16:53;;;;;;;11.53;3.03;;;9.10;99.90;;;;;;4898350;29;20322;-75
2023/12/11 07:19:21;;;;;;;10.43;3.17;;;9.10;99.90;;;;;;4901391;29;20222;-73
2023/12/11 07:21:47;;;;;;;12.33;2.93;;;9.20;99.90;;;;;;4896779;29;20187;-72
2023/12/11 07:24:13;;;;;;;10.20;2.57;;;9.30;99.90;;;;;;4906207;29;20466;-72
2023/12/11 07:26:39;;;;;;;12.33;3.70;;;9.50;99.90;;;;;;4890965;29;20215;-74
2023/12/11 07:29:07;;;;;;;15.33;3.47;;;9.70;99.90;;;;;;4875149;29;20214;-76
2023/12/11 07:31:33;;;;;;;11.20;3.20;;;9.80;99.90;;;;;;4896415;29;20548;-74
2023/12/11 07:33:59;;;;;;;15.43;3.00;;;9.90;99.90;;;;;;4893724;29;20437;-77
2023/12/11 07:36:25;;;;;;;12.63;3.43;;;10.00;99.90;;;;;;4869681;29;20455;-77
2023/12/11 07:38:50;;;;;;;10.60;2.53;;;10.00;99.90;;;;;;4862267;29;20207;-75
2023/12/11 07:41:22;;;;;;;13.80;3.50;;;10.20;99.90;;;;;;4903162;29;20183;-74
2023/12/11 07:43:48;;;;;;;15.93;3.87;;;10.20;99.90;;;;;;4898884;29;20276;-74
2023/12/11 07:46:18;;;;;;;13.50;3.83;;;10.20;99.90;;;;;;4893014;29;20451;-75
2023/12/11 07:48:44;;;;;;;9.87;2.90;;;10.20;99.90;;;;;;4880044;29;20968;-75
2023/12/11 07:51:21;;;;;;;9.73;2.30;;;10.20;99.90;;;;;;4896191;29;20524;-75
2023/12/11 07:53:47;;;;;;;8.07;3.23;;;10.20;99.90;;;;;;4857375;29;20867;-75
2023/12/11 07:56:20;;;;;;;20.90;3.93;;;10.30;99.90;;;;;;4898240;29;20453;-74
2023/12/11 07:58:46;;;;;;;12.80;3.37;;;10.30;99.90;;;;;;4898169;29;20440;-75
2023/12/11 08:01:12;;;;;;;19.70;4.00;;;10.40;99.90;;;;;;4897712;29;20468;-77
2023/12/11 08:03:38;;;;;;;11.93;2.80;;;10.50;99.90;;;;;;4891580;29;20310;-74
2023/12/11 08:06:03;;;;;;;16.13;3.20;;;10.60;99.90;;;;;;4886081;29;20520;-76
2023/12/11 08:08:29;;;;;;;11.20;3.27;;;10.60;99.90;;;;;;4902675;29;20191;-76
2023/12/11 08:10:56;;;;;;;13.40;4.10;;;10.60;99.90;;;;;;4882427;29;20464;-77
2023/12/11 08:13:21;;;;;;;9.50;2.40;;;10.60;99.90;;;;;;4877674;29;20279;-74
2023/12/11 08:15:47;;;;;;;9.13;2.50;;;10.60;99.90;;;;;;4904145;29;20812;-74
2023/12/11 08:18:13;;;;;;;13.57;3.03;;;10.60;99.90;;;;;;4878667;29;20188;-74
2023/12/11 08:20:39;;;;;;;11.60;2.77;;;10.70;99.90;;;;;;4883759;29;20211;-74
2023/12/11 08:23:04;;;;;;;12.10;3.73;;;10.70;99.90;;;;;;4891736;29;20439;-76
2023/12/11 08:25:30;;;;;;;13.73;3.77;;;10.80;99.90;;;;;;4883630;29;20275;-74
2023/12/11 08:27:56;;;;;;;13.30;3.73;;;10.80;99.90;;;;;;4888373;29;20191;-74
2023/12/11 08:30:21;;;;;;;16.00;3.70;;;10.70;99.90;;;;;;4884093;29;20243;-74
2023/12/11 08:32:47;;;;;;;11.63;2.80;;;10.80;99.90;;;;;;4881540;29;20259;-76
2023/12/11 08:35:13;;;;;;;11.67;4.17;;;10.90;99.90;;;;;;4902723;29;20218;-76
2023/12/11 08:37:39;;;;;;;15.57;3.20;;;10.90;99.90;;;;;;4902560;29;20185;-75
2023/12/11 08:40:05;;;;;;;14.37;3.40;;;10.90;99.90;;;;;;4916440;29;20242;-75
2023/12/11 08:42:33;;;;;;;16.93;3.40;;;11.00;99.90;;;;;;4889986;29;20216;-78
2023/12/11 08:44:58;;;;;;;9.23;2.90;;;11.00;99.90;;;;;;4909642;29;20453;-76
2023/12/11 08:47:24;;;;;;;9.97;3.10;;;11.10;99.90;;;;;;4908294;29;20488;-78
2023/12/11 08:49:50;;;;;;;17.50;3.57;;;11.10;99.90;;;;;;4890060;29;20472;-76
2023/12/11 08:52:16;;;;;;;12.43;3.37;;;11.20;99.90;;;;;;4905605;29;20190;-75
2023/12/11 08:54:41;;;;;;;8.53;2.50;;;11.20;99.90;;;;;;4909944;29;20209;-77
2023/12/11 08:57:08;;;;;;;10.10;3.20;;;11.20;99.90;;;;;;4887717;29;20201;-76
2023/12/11 08:59:34;;;;;;;16.03;3.73;;;11.20;99.90;;;;;;4885989;29;20190;-76
2023/12/11 09:01:59;;;;;;;10.30;3.53;;;11.20;99.90;;;;;;4872039;29;20471;-76
2023/12/11 09:04:25;;;;;;;15.80;3.10;;;11.30;99.90;;;;;;4889245;29;20196;-75
2023/12/11 09:06:51;;;;;;;21.60;4.87;;;11.30;99.90;;;;;;4880687;29;20556;-77
2023/12/11 09:09:16;;;;;;;14.97;2.83;;;11.40;99.90;;;;;;4908708;29;20203;-74
2023/12/11 09:11:42;;;;;;;11.20;2.80;;;11.40;99.90;;;;;;4887206;29;20162;-74
2023/12/11 09:14:08;;;;;;;8.57;2.83;;;11.50;99.90;;;;;;4889136;29;20285;-75
2023/12/11 09:16:33;;;;;;;11.13;1.87;;;11.50;99.90;;;;;;4899680;29;20221;-74
2023/12/11 09:18:59;;;;;;;16.20;3.57;;;11.60;99.90;;;;;;4887788;29;20250;-76
2023/12/11 09:21:25;;;;;;;13.98;3.60;;;11.60;99.90;;;;;;4880256;29;20554;-73
2023/12/11 09:23:51;;;;;;;10.30;3.10;;;11.60;99.90;;;;;;4888541;29;20291;-75
2023/12/11 09:26:17;;;;;;;10.40;2.97;;;11.60;99.90;;;;;;4892971;29;20290;-77
2023/12/11 09:28:43;;;;;;;8.90;3.37;;;11.60;99.90;;;;;;4907788;29;20194;-75
2023/12/11 09:31:09;;;;;;;12.17;2.90;;;11.70;99.10;;;;;;4887232;29;20832;-76
2023/12/11 09:33:35;;;;;;;15.20;3.20;;;11.70;99.00;;;;;;4882423;29;20490;-73
2023/12/11 09:36:01;;;;;;;9.13;2.60;;;11.80;98.40;;;;;;4864190;29;20209;-75
2023/12/11 09:38:27;;;;;;;8.30;2.60;;;11.90;98.00;;;;;;4877175;29;20291;-75
2023/12/11 09:40:53;;;;;;;15.00;2.40;;;11.90;97.50;;;;;;4901344;29;20493;-75
2023/12/11 09:43:19;;;;;;;8.70;2.73;;;11.90;97.40;;;;;;4883120;29;20204;-74
2023/12/11 09:45:47;;;;;;;9.87;3.03;;;11.90;97.30;;;;;;4888655;29;20520;-75
2023/12/11 09:48:13;;;;;;;14.27;2.93;;;11.80;97.80;;;;;;4903356;29;20207;-75
2023/12/11 09:50:39;;;;;;;8.37;2.80;;;11.80;98.00;;;;;;4908198;29;20469;-76
2023/12/11 09:53:05;;;;;;;15.57;3.80;;;11.90;98.20;;;;;;4893742;29;20198;-78
2023/12/11 09:55:30;;;;;;;14.03;2.93;;;11.80;98.80;;;;;;4881250;29;20230;-75
2023/12/11 09:57:56;;;;;;;18.53;3.57;;;11.80;98.90;;;;;;4878036;29;20194;-76
2023/12/11 10:00:23;;;;;;;9.17;2.67;;;11.90;99.20;;;;;;4882334;29;20205;-76
2023/12/11 10:02:53;;;;;;;16.20;3.23;;;11.90;99.00;;;;;;4899100;29;20527;-74
2023/12/11 10:05:25;;;;;;;8.37;2.53;;;12.00;98.40;;;;;;4894259;29;20471;-79
2023/12/11 10:07:51;;;;;;;9.47;2.37;;;11.90;98.50;;;;;;4884583;29;20442;-78
2023/12/11 10:10:33;;;;;;;12.40;2.70;;;11.90;98.00;;;;;;4860718;29;21066;-76
2023/12/11 10:13:01;;;;;;;12.67;2.93;;;11.80;98.10;;;;;;4868211;29;20440;-75
2023/12/11 10:15:28;;;;;;;15.80;3.20;;;11.80;98.60;;;;;;4881116;29;20474;-77
2023/12/11 10:18:12;;;;;;;20.20;3.70;;;11.80;98.80;;;;;;4882770;29;20741;-75
2023/12/11 10:20:40;;;;;;;6.00;2.67;;;11.80;98.60;;;;;;4889572;29;20439;-79
2023/12/11 10:23:21;;;;;;;7.90;3.20;;;11.90;98.20;;;;;;4889888;29;20860;-78
2023/12/11 10:25:52;;;;;;;15.70;3.37;;;11.90;98.10;;;;;;4889173;29;20465;-76
2023/12/11 10:28:20;;;;;;;14.93;3.50;;;11.90;97.90;;;;;;4873809;29;20424;-78
2023/12/11 10:30:50;;;;;;;11.97;2.70;;;11.90;98.10;;;;;;4866959;29;20566;-75
2023/12/11 10:33:18;;;;;;;12.00;5.27;;;11.80;98.80;;;;;;4863344;29;20478;-76
2023/12/11 10:35:44;;;;;;;18.03;3.00;;;11.80;99.00;;;;;;4890011;29;20448;-74
2023/12/11 10:38:10;;;;;;;15.63;3.83;;;11.70;99.40;;;;;;4898770;29;20523;-75
2023/12/11 10:40:41;;;;;;;12.30;3.23;;;11.70;99.80;;;;;;4862276;29;20431;-77
2023/12/11 10:43:07;;;;;;;12.87;3.73;;;11.80;99.90;;;;;;4904980;29;20494;-74
2023/12/11 10:45:33;;;;;;;10.50;4.07;;;11.80;99.80;;;;;;4899734;29;20747;-76
2023/12/11 10:48:01;;;;;;;13.90;2.37;;;11.80;99.90;;;;;;4882639;29;20441;-76
2023/12/11 10:50:27;;;;;;;15.23;2.80;;;11.80;99.70;;;;;;4855653;29;20486;-75
2023/12/11 10:52:53;;;;;;;14.30;2.60;;;11.90;99.40;;;;;;4869855;29;20899;-75
2023/12/11 10:55:19;;;;;;;10.10;3.13;;;11.90;99.70;;;;;;4889846;29;20490;-74
2023/12/11 10:57:46;;;;;;;15.17;3.20;;;11.90;99.60;;;;;;4890807;29;21446;-76
2023/12/11 11:00:14;;;;;;;11.27;2.90;;;11.90;99.90;;;;;;4884666;29;20451;-76
2023/12/11 11:02:44;;;;;;;8.77;2.70;;;11.80;99.90;;;;;;4867019;29;20482;-75
2023/12/11 11:05:11;;;;;;;14.73;3.57;;;11.80;99.90;;;;;;4898467;29;20451;-77
2023/12/11 11:07:57;;;;;;;19.47;3.33;;;11.80;99.90;;;;;;4870409;29;20472;-78
2023/12/11 11:10:33;;;;;;;11.47;3.50;;;11.80;99.90;;;;;;4892622;29;20725;-76
2023/12/11 11:13:21;;;;;;;13.87;2.73;;;11.70;99.90;;;;;;4879833;29;20429;-79
2023/12/11 11:15:53;;;;;;;13.17;3.63;;;11.60;99.90;;;;;;4881703;29;20571;-75
2023/12/11 11:18:18;;;;;;;13.13;3.20;;;11.60;99.90;;;;;;4889183;29;20433;-77
2023/12/11 11:21:09;;;;;;;15.80;3.33;;;11.60;99.90;;;;;;4888000;29;20849;-77
2023/12/11 11:23:45;;;;;;;15.50;4.47;;;11.70;99.90;;;;;;4898711;29;20207;-76
2023/12/11 11:26:34;;;;;;;16.77;3.60;;;11.70;99.90;;;;;;4899145;29;20513;-78
2023/12/11 11:29:04;;;;;;;21.67;5.07;;;11.80;99.90;;;;;;4882231;29;20442;-77
2023/12/11 11:32:03;;;;;;;10.63;3.33;;;11.70;99.90;;;;;;4901005;29;20464;-77
2023/12/11 11:34:40;;;;;;;12.67;2.73;;;11.60;99.90;;;;;;4854486;29;20450;-77
2023/12/11 11:37:09;;;;;;;12.80;3.87;;;11.60;99.90;;;;;;4885316;29;20749;-76
2023/12/11 11:39:58;;;;;;;13.93;3.33;;;11.60;99.90;;;;;;4886652;29;20430;-77
2023/12/11 11:42:24;;;;;;;16.70;4.43;;;11.60;99.90;;;;;;4885858;29;20440;-77
2023/12/11 11:44:58;;;;;;;10.83;4.03;;;11.50;99.90;;;;;;4883863;29;20454;-78
2023/12/11 11:47:25;;;;;;;17.93;4.10;;;11.40;99.90;;;;;;4883611;29;20430;-77
2023/12/11 11:49:50;;;;;;;12.07;3.17;;;11.40;99.90;;;;;;4881860;29;20553;-77
2023/12/11 11:52:22;;;;;;;15.80;4.00;;;11.30;99.90;;;;;;4895192;29;20425;-78
2023/12/11 11:54:50;;;;;;;17.50;4.53;;;11.20;99.90;;;;;;4885862;29;20220;-78
2023/12/11 11:57:16;;;;;;;22.27;3.83;;;11.20;99.90;;;;;;4890063;29;20477;-76
2023/12/11 11:59:43;;;;;;;10.93;3.83;;;11.10;99.90;;;;;;4879895;29;20536;-77
2023/12/11 12:02:09;;;;;;;12.40;4.43;;;11.10;99.90;;;;;;4882528;29;20423;-75
2023/12/11 12:04:35;;;;;;;18.33;5.00;;;11.10;99.90;;;;;;4912438;29;20424;-76
2023/12/11 12:07:03;;;;;;;13.30;3.00;;;11.10;99.90;;;;;;4906482;29;20177;-76
2023/12/11 12:09:33;;;;;;;13.00;3.90;;;11.10;99.90;;;;;;4883294;29;20471;-77
2023/12/11 12:12:00;;;;;;;10.17;3.03;;;11.10;99.90;;;;;;4892495;29;20423;-78
2023/12/11 12:14:26;;;;;;;13.33;3.50;;;11.10;99.90;;;;;;4890469;29;20470;-78
2023/12/11 12:16:52;;;;;;;11.13;2.87;;;11.00;99.90;;;;;;4872796;29;20431;-76
2023/12/11 12:19:31;;;;;;;12.17;3.73;;;10.90;99.90;;;;;;4873224;29;20426;-79
2023/12/11 12:21:58;;;;;;;18.70;4.00;;;10.60;99.90;;;;;;4909682;29;20455;-78
2023/12/11 12:24:25;;;;;;;14.03;4.33;;;10.50;99.90;;;;;;4908864;29;20474;-78
2023/12/11 12:26:59;;;;;;;12.93;3.60;;;10.30;99.90;;;;;;4898152;29;20778;-76
2023/12/11 12:29:30;;;;;;;13.20;4.93;;;10.20;99.90;;;;;;4882010;29;20527;-77
2023/12/11 12:31:57;;;;;;;15.33;4.03;;;10.10;99.90;;;;;;4891312;29;20517;-76
2023/12/11 12:34:25;;;;;;;15.60;4.00;;;10.10;99.90;;;;;;4857395;29;20441;-79
2023/12/11 12:36:54;;;;;;;11.53;3.03;;;10.00;99.90;;;;;;4879808;29;20461;-77
2023/12/11 12:39:20;;;;;;;10.10;3.50;;;9.80;99.90;;;;;;4884115;29;20706;-78
2023/12/11 12:41:49;;;;;;;13.67;3.90;;;9.70;99.90;;;;;;4882620;29;20425;-79